DNA419 LIPE-LRBC
Flight info
| Callsign | DNA419 |
|---|---|
| Flight time | 1h 43m |
| Altitude | 34000 |
| Route | LUMAV M859 CHI M167 ILB DCT GORPA DCT VEBAL DCT SEG DCT TEGRI DCT TOMET DCT MIKVI Z650 REDKU |
| Aircraft | A320/M-SDE3FGHIRWY/LB1 |
Departure
| Time | 2026-04-26 16:21 |
|---|---|
| Airport | Bologna Guglielmo Marconi Airport (LIPE) |
Arrival
| Time | 2026-04-26 18:05 |
|---|---|
| Airport | Bacău George Enescu International Airport (LRBC) |
| Time | Latitude | Longitude | Altitude | Speed | Heading |
|---|---|---|---|---|---|
| 2026-04-26 15:58 | 44.53150 | 11.29084 | 131 ft | 0 kts | 207° |
| 2026-04-26 16:13 | 44.53153 | 11.29087 | 130 ft | 2 kts | 206° |
| 2026-04-26 16:13 | 44.53168 | 11.29097 | 127 ft | 2 kts | 204° |
| 2026-04-26 16:13 | 44.53184 | 11.29105 | 129 ft | 2 kts | 193° |
| 2026-04-26 16:14 | 44.53200 | 11.29108 | 129 ft | 2 kts | 163° |
| 2026-04-26 16:14 | 44.53214 | 11.29096 | 128 ft | 2 kts | 120° |
| 2026-04-26 16:14 | 44.53217 | 11.29087 | 126 ft | 0 kts | 117° |
| 2026-04-26 16:17 | 44.53214 | 11.29097 | 128 ft | 8 kts | 117° |
| 2026-04-26 16:17 | 44.53192 | 11.29172 | 129 ft | 8 kts | 92° |
| 2026-04-26 16:17 | 44.53208 | 11.29256 | 131 ft | 10 kts | 105° |
| 2026-04-26 16:18 | 44.53171 | 11.29356 | 126 ft | 13 kts | 117° |
| 2026-04-26 16:18 | 44.53071 | 11.29633 | 128 ft | 19 kts | 117° |
| 2026-04-26 16:19 | 44.52941 | 11.29993 | 126 ft | 15 kts | 116° |
| 2026-04-26 16:19 | 44.52896 | 11.30120 | 127 ft | 9 kts | 116° |
| 2026-04-26 16:19 | 44.52883 | 11.30282 | 129 ft | 12 kts | 57° |
| 2026-04-26 16:20 | 44.52991 | 11.30338 | 126 ft | 14 kts | 349° |
| 2026-04-26 16:20 | 44.53038 | 11.30272 | 127 ft | 0 kts | 296° |
| 2026-04-26 16:21 | 44.53097 | 11.30108 | 126 ft | 55 kts | 297° |
| 2026-04-26 16:21 | 44.53376 | 11.29332 | 129 ft | 120 kts | 296° |
| 2026-04-26 16:21 | 44.53829 | 11.28077 | 200 ft | 161 kts | 298° |
| 2026-04-26 16:21 | 44.54327 | 11.26687 | 751 ft | 160 kts | 297° |
| 2026-04-26 16:22 | 44.54833 | 11.25259 | 1345 ft | 167 kts | 296° |
| 2026-04-26 16:22 | 44.55355 | 11.23782 | 1867 ft | 176 kts | 296° |
| 2026-04-26 16:22 | 44.55903 | 11.22213 | 2406 ft | 184 kts | 296° |
| 2026-04-26 16:22 | 44.56464 | 11.20558 | 2940 ft | 193 kts | 295° |
| 2026-04-26 16:23 | 44.57088 | 11.18802 | 3365 ft | 212 kts | 297° |
| 2026-04-26 16:23 | 44.57822 | 11.16864 | 3727 ft | 237 kts | 297° |
| 2026-04-26 16:23 | 44.58789 | 11.14860 | 4221 ft | 261 kts | 315° |
| 2026-04-26 16:23 | 44.60323 | 11.13428 | 5032 ft | 271 kts | 337° |
| 2026-04-26 16:24 | 44.62182 | 11.12890 | 5955 ft | 277 kts | 359° |
| 2026-04-26 16:24 | 44.64073 | 11.13405 | 6886 ft | 281 kts | 22° |
| 2026-04-26 16:24 | 44.65663 | 11.14931 | 7752 ft | 285 kts | 46° |
| 2026-04-26 16:24 | 44.66702 | 11.17307 | 8626 ft | 290 kts | 71° |
| 2026-04-26 16:25 | 44.66943 | 11.20116 | 9490 ft | 293 kts | 96° |
| 2026-04-26 16:25 | 44.66546 | 11.22944 | 10306 ft | 299 kts | 102° |
| 2026-04-26 16:25 | 44.66392 | 11.25953 | 10554 ft | 322 kts | 85° |
| 2026-04-26 16:25 | 44.66915 | 11.29055 | 11046 ft | 332 kts | 65° |
| 2026-04-26 16:26 | 44.67936 | 11.31996 | 11750 ft | 337 kts | 63° |
| 2026-04-26 16:26 | 44.68634 | 11.33953 | 12252 ft | 339 kts | 63° |
| 2026-04-26 16:26 | 44.70054 | 11.37901 | 13233 ft | 345 kts | 62° |
| 2026-04-26 16:26 | 44.71153 | 11.40927 | 13966 ft | 349 kts | 62° |
| 2026-04-26 16:27 | 44.72265 | 11.43987 | 14617 ft | 353 kts | 62° |
| 2026-04-26 16:27 | 44.73386 | 11.47074 | 15254 ft | 357 kts | 62° |
| 2026-04-26 16:27 | 44.74521 | 11.50206 | 15899 ft | 361 kts | 62° |
| 2026-04-26 16:27 | 44.75662 | 11.53360 | 16539 ft | 364 kts | 62° |
| 2026-04-26 16:28 | 44.76818 | 11.56564 | 17186 ft | 368 kts | 62° |
| 2026-04-26 16:28 | 44.77977 | 11.59793 | 17839 ft | 372 kts | 63° |
| 2026-04-26 16:28 | 44.79129 | 11.63019 | 18463 ft | 375 kts | 63° |
| 2026-04-26 16:28 | 44.80307 | 11.66322 | 19020 ft | 379 kts | 63° |
| 2026-04-26 16:29 | 44.81495 | 11.69651 | 19581 ft | 383 kts | 63° |
| 2026-04-26 16:29 | 44.82695 | 11.73024 | 20146 ft | 387 kts | 62° |
| 2026-04-26 16:29 | 44.83911 | 11.76437 | 20698 ft | 391 kts | 62° |
| 2026-04-26 16:29 | 44.85141 | 11.79886 | 21242 ft | 395 kts | 62° |
| 2026-04-26 16:30 | 44.86381 | 11.83366 | 21769 ft | 400 kts | 62° |
| 2026-04-26 16:30 | 44.87629 | 11.86882 | 22292 ft | 404 kts | 62° |
| 2026-04-26 16:30 | 44.88891 | 11.90441 | 22818 ft | 408 kts | 62° |
| 2026-04-26 16:30 | 44.90148 | 11.93991 | 23340 ft | 412 kts | 62° |
| 2026-04-26 16:31 | 44.91435 | 11.97627 | 23836 ft | 416 kts | 62° |
| 2026-04-26 16:31 | 44.92731 | 12.01293 | 24278 ft | 419 kts | 62° |
| 2026-04-26 16:31 | 44.94038 | 12.04990 | 24742 ft | 423 kts | 62° |
| 2026-04-26 16:31 | 44.95353 | 12.08713 | 25179 ft | 425 kts | 62° |
| 2026-04-26 16:32 | 44.96676 | 12.12465 | 25611 ft | 428 kts | 62° |
| 2026-04-26 16:32 | 44.97554 | 12.14965 | 25905 ft | 430 kts | 62° |
| 2026-04-26 16:32 | 44.99336 | 12.20053 | 26478 ft | 434 kts | 62° |
| 2026-04-26 16:32 | 45.00675 | 12.23887 | 26900 ft | 437 kts | 62° |
| 2026-04-26 16:33 | 45.02026 | 12.27746 | 27316 ft | 439 kts | 62° |
| 2026-04-26 16:33 | 45.03382 | 12.31618 | 27714 ft | 442 kts | 62° |
| 2026-04-26 16:33 | 45.04730 | 12.35471 | 28099 ft | 445 kts | 62° |
| 2026-04-26 16:33 | 45.06103 | 12.39404 | 28488 ft | 447 kts | 62° |
| 2026-04-26 16:34 | 45.07483 | 12.43366 | 28887 ft | 450 kts | 62° |
| 2026-04-26 16:34 | 45.08869 | 12.47349 | 29274 ft | 453 kts | 62° |
| 2026-04-26 16:34 | 45.10263 | 12.51367 | 29649 ft | 456 kts | 62° |
| 2026-04-26 16:34 | 45.11661 | 12.55405 | 30040 ft | 458 kts | 62° |
| 2026-04-26 16:35 | 45.13066 | 12.59469 | 30381 ft | 461 kts | 62° |
| 2026-04-26 16:35 | 45.14477 | 12.63558 | 30709 ft | 463 kts | 62° |
| 2026-04-26 16:35 | 45.15835 | 12.67500 | 31007 ft | 466 kts | 62° |
| 2026-04-26 16:35 | 45.17261 | 12.71647 | 31332 ft | 468 kts | 62° |
| 2026-04-26 16:36 | 45.18688 | 12.75801 | 31663 ft | 470 kts | 62° |
| 2026-04-26 16:36 | 45.20095 | 12.79900 | 32110 ft | 469 kts | 62° |
| 2026-04-26 16:36 | 45.21517 | 12.84052 | 32563 ft | 468 kts | 62° |
| 2026-04-26 16:36 | 45.22935 | 12.88205 | 33011 ft | 467 kts | 62° |
| 2026-04-26 16:37 | 45.24338 | 12.92349 | 33459 ft | 466 kts | 63° |
| 2026-04-26 16:37 | 45.25640 | 12.96560 | 33911 ft | 467 kts | 66° |
| 2026-04-26 16:37 | 45.26842 | 13.00848 | 34068 ft | 468 kts | 68° |
| 2026-04-26 16:37 | 45.27599 | 13.03738 | 34092 ft | 473 kts | 69° |
| 2026-04-26 16:38 | 45.30175 | 13.14109 | 34094 ft | 478 kts | 69° |
| 2026-04-26 16:38 | 45.32432 | 13.23001 | 34091 ft | 478 kts | 68° |
| 2026-04-26 16:39 | 45.34743 | 13.31801 | 34092 ft | 479 kts | 68° |
| 2026-04-26 16:39 | 45.37086 | 13.40671 | 34090 ft | 479 kts | 68° |
| 2026-04-26 16:40 | 45.39410 | 13.49563 | 34089 ft | 480 kts | 68° |
| 2026-04-26 16:40 | 45.41713 | 13.58474 | 34091 ft | 480 kts | 68° |
| 2026-04-26 16:41 | 45.43994 | 13.67334 | 34094 ft | 480 kts | 68° |
| 2026-04-26 16:41 | 45.46289 | 13.76260 | 34095 ft | 481 kts | 68° |
| 2026-04-26 16:42 | 45.48573 | 13.85215 | 34099 ft | 481 kts | 69° |
| 2026-04-26 16:42 | 45.50834 | 13.94184 | 34102 ft | 481 kts | 69° |
| 2026-04-26 16:43 | 45.53091 | 14.03175 | 34103 ft | 481 kts | 69° |
| 2026-04-26 16:43 | 45.55341 | 14.12159 | 34108 ft | 482 kts | 69° |
| 2026-04-26 16:44 | 45.57329 | 14.21293 | 34111 ft | 483 kts | 75° |
| 2026-04-26 16:44 | 45.58986 | 14.30514 | 34110 ft | 483 kts | 74° |
| 2026-04-26 16:45 | 45.60661 | 14.39808 | 34109 ft | 483 kts | 74° |
| 2026-04-26 16:45 | 45.62324 | 14.49107 | 34107 ft | 484 kts | 74° |
| 2026-04-26 16:46 | 45.63980 | 14.58429 | 34111 ft | 484 kts | 75° |
| 2026-04-26 16:46 | 45.65626 | 14.67757 | 34109 ft | 484 kts | 75° |
| 2026-04-26 16:47 | 45.67245 | 14.76921 | 34104 ft | 484 kts | 75° |
| 2026-04-26 16:47 | 45.68880 | 14.86251 | 34108 ft | 484 kts | 75° |
| 2026-04-26 16:48 | 45.70506 | 14.95618 | 34101 ft | 485 kts | 75° |
| 2026-04-26 16:48 | 45.72121 | 15.04984 | 34114 ft | 485 kts | 75° |
| 2026-04-26 16:49 | 45.73724 | 15.14302 | 34124 ft | 485 kts | 75° |
| 2026-04-26 16:49 | 45.75303 | 15.23493 | 34126 ft | 486 kts | 75° |
| 2026-04-26 16:50 | 45.76908 | 15.32892 | 34117 ft | 486 kts | 75° |
| 2026-04-26 16:50 | 45.78323 | 15.42356 | 34127 ft | 486 kts | 79° |
| 2026-04-26 16:51 | 45.79400 | 15.51753 | 34116 ft | 487 kts | 81° |
| 2026-04-26 16:51 | 45.80434 | 15.61335 | 34127 ft | 487 kts | 80° |
| 2026-04-26 16:52 | 45.81168 | 15.67736 | 34131 ft | 487 kts | 79° |
| 2026-04-26 16:52 | 45.82690 | 15.80470 | 34134 ft | 487 kts | 79° |
| 2026-04-26 16:53 | 45.83817 | 15.89997 | 34156 ft | 488 kts | 79° |
| 2026-04-26 16:53 | 45.84926 | 15.99594 | 34146 ft | 488 kts | 79° |
| 2026-04-26 16:54 | 45.86028 | 16.09202 | 34155 ft | 488 kts | 79° |
| 2026-04-26 16:54 | 45.86579 | 16.14014 | 34270 ft | 489 kts | 79° |
| 2026-04-26 16:54 | 45.87128 | 16.18831 | 34650 ft | 488 kts | 79° |
| 2026-04-26 16:55 | 45.87675 | 16.23637 | 35008 ft | 488 kts | 79° |
| 2026-04-26 16:55 | 45.88216 | 16.28443 | 35124 ft | 488 kts | 79° |
| 2026-04-26 16:55 | 45.89275 | 16.37995 | 35152 ft | 488 kts | 79° |
| 2026-04-26 16:56 | 45.90868 | 16.52310 | 35162 ft | 488 kts | 79° |
| 2026-04-26 16:57 | 45.91937 | 16.61933 | 35164 ft | 488 kts | 79° |
| 2026-04-26 16:57 | 45.93499 | 16.76229 | 35165 ft | 488 kts | 79° |
| 2026-04-26 16:58 | 45.94196 | 16.82674 | 35166 ft | 489 kts | 80° |
| 2026-04-26 16:59 | 45.96081 | 17.00370 | 35165 ft | 489 kts | 80° |
| 2026-04-26 17:00 | 45.98112 | 17.19659 | 35167 ft | 490 kts | 80° |
| 2026-04-26 17:00 | 45.99612 | 17.34197 | 35167 ft | 490 kts | 80° |
| 2026-04-26 17:01 | 46.00590 | 17.43892 | 35170 ft | 490 kts | 80° |
| 2026-04-26 17:01 | 46.01557 | 17.53603 | 35170 ft | 491 kts | 80° |
| 2026-04-26 17:02 | 46.02520 | 17.63331 | 35167 ft | 491 kts | 80° |
| 2026-04-26 17:02 | 46.03472 | 17.72996 | 35173 ft | 492 kts | 80° |
| 2026-04-26 17:03 | 46.04417 | 17.82740 | 35178 ft | 492 kts | 80° |
| 2026-04-26 17:03 | 46.05352 | 17.92499 | 35182 ft | 492 kts | 80° |
| 2026-04-26 17:04 | 46.06280 | 18.02242 | 35191 ft | 491 kts | 80° |
| 2026-04-26 17:04 | 46.07204 | 18.11923 | 35190 ft | 491 kts | 80° |
| 2026-04-26 17:05 | 46.08124 | 18.21670 | 35198 ft | 491 kts | 80° |
| 2026-04-26 17:05 | 46.09028 | 18.31418 | 35190 ft | 491 kts | 81° |
| 2026-04-26 17:06 | 46.09922 | 18.41110 | 35190 ft | 491 kts | 81° |
| 2026-04-26 17:06 | 46.10808 | 18.50865 | 35179 ft | 491 kts | 81° |
| 2026-04-26 17:07 | 46.11690 | 18.60619 | 35170 ft | 491 kts | 81° |
| 2026-04-26 17:07 | 46.12559 | 18.70383 | 35169 ft | 491 kts | 81° |
| 2026-04-26 17:08 | 46.13418 | 18.80144 | 35162 ft | 491 kts | 81° |
| 2026-04-26 17:08 | 46.14276 | 18.89901 | 35171 ft | 491 kts | 81° |
| 2026-04-26 17:09 | 46.14843 | 18.96361 | 35161 ft | 491 kts | 81° |
| 2026-04-26 17:09 | 46.15964 | 19.09362 | 35160 ft | 491 kts | 81° |
| 2026-04-26 17:10 | 46.16790 | 19.19136 | 35158 ft | 491 kts | 81° |
| 2026-04-26 17:10 | 46.17607 | 19.28911 | 35158 ft | 491 kts | 81° |
| 2026-04-26 17:11 | 46.18416 | 19.38615 | 35162 ft | 491 kts | 81° |
| 2026-04-26 17:11 | 46.19223 | 19.48388 | 35159 ft | 491 kts | 81° |
| 2026-04-26 17:12 | 46.20283 | 19.61408 | 35164 ft | 490 kts | 81° |
| 2026-04-26 17:13 | 46.21453 | 19.76075 | 35159 ft | 490 kts | 81° |
| 2026-04-26 17:14 | 46.22614 | 19.90740 | 35159 ft | 490 kts | 81° |
| 2026-04-26 17:14 | 46.23738 | 20.05340 | 35155 ft | 490 kts | 81° |
| 2026-04-26 17:15 | 46.24486 | 20.20078 | 35155 ft | 491 kts | 86° |
| 2026-04-26 17:16 | 46.24623 | 20.29946 | 35150 ft | 491 kts | 87° |
| 2026-04-26 17:16 | 46.24778 | 20.39822 | 35149 ft | 491 kts | 86° |
| 2026-04-26 17:17 | 46.25014 | 20.49614 | 35148 ft | 491 kts | 86° |
| 2026-04-26 17:17 | 46.25261 | 20.59470 | 35148 ft | 491 kts | 86° |
| 2026-04-26 17:18 | 46.25489 | 20.69327 | 35141 ft | 491 kts | 86° |
| 2026-04-26 17:18 | 46.25695 | 20.79181 | 35138 ft | 491 kts | 86° |
| 2026-04-26 17:19 | 46.25983 | 20.93968 | 35139 ft | 491 kts | 86° |
| 2026-04-26 17:19 | 46.26171 | 21.03815 | 35137 ft | 491 kts | 86° |
| 2026-04-26 17:20 | 46.26327 | 21.12013 | 35139 ft | 491 kts | 85° |
| 2026-04-26 17:20 | 46.26982 | 21.23394 | 35140 ft | 489 kts | 81° |
| 2026-04-26 17:21 | 46.27807 | 21.33161 | 35138 ft | 489 kts | 81° |
| 2026-04-26 17:21 | 46.28557 | 21.42935 | 35139 ft | 490 kts | 82° |
| 2026-04-26 17:22 | 46.29199 | 21.52736 | 35140 ft | 490 kts | 82° |
| 2026-04-26 17:22 | 46.29802 | 21.62485 | 35140 ft | 490 kts | 82° |
| 2026-04-26 17:23 | 46.30423 | 21.72305 | 35140 ft | 490 kts | 82° |
| 2026-04-26 17:23 | 46.31058 | 21.82110 | 35144 ft | 490 kts | 82° |
| 2026-04-26 17:24 | 46.31680 | 21.91933 | 35141 ft | 490 kts | 82° |
| 2026-04-26 17:24 | 46.32281 | 22.01685 | 35141 ft | 490 kts | 82° |
| 2026-04-26 17:25 | 46.32881 | 22.11512 | 35145 ft | 490 kts | 82° |
| 2026-04-26 17:25 | 46.33473 | 22.21334 | 35143 ft | 490 kts | 82° |
| 2026-04-26 17:26 | 46.34057 | 22.31157 | 35144 ft | 490 kts | 82° |
| 2026-04-26 17:26 | 46.34633 | 22.40981 | 35150 ft | 490 kts | 82° |
| 2026-04-26 17:27 | 46.35198 | 22.50751 | 35151 ft | 490 kts | 82° |
| 2026-04-26 17:27 | 46.35756 | 22.60575 | 35151 ft | 490 kts | 83° |
| 2026-04-26 17:28 | 46.36305 | 22.70422 | 35155 ft | 491 kts | 82° |
| 2026-04-26 17:28 | 46.36851 | 22.80263 | 35158 ft | 490 kts | 83° |
| 2026-04-26 17:29 | 46.37300 | 22.88436 | 35156 ft | 490 kts | 83° |
| 2026-04-26 17:29 | 46.37906 | 22.99878 | 35163 ft | 490 kts | 83° |
| 2026-04-26 17:30 | 46.38421 | 23.09739 | 35161 ft | 490 kts | 83° |
| 2026-04-26 17:30 | 46.38926 | 23.19486 | 35161 ft | 490 kts | 83° |
| 2026-04-26 17:31 | 46.39410 | 23.29048 | 35163 ft | 476 kts | 83° |
| 2026-04-26 17:31 | 46.39891 | 23.38593 | 35158 ft | 473 kts | 82° |
| 2026-04-26 17:32 | 46.40120 | 23.43313 | 34922 ft | 467 kts | 83° |
| 2026-04-26 17:32 | 46.40333 | 23.47802 | 34571 ft | 462 kts | 83° |
| 2026-04-26 17:32 | 46.40552 | 23.52369 | 34154 ft | 458 kts | 82° |
| 2026-04-26 17:32 | 46.40774 | 23.56959 | 33667 ft | 455 kts | 82° |
| 2026-04-26 17:33 | 46.40995 | 23.61516 | 33204 ft | 452 kts | 82° |
| 2026-04-26 17:33 | 46.41214 | 23.66035 | 32752 ft | 449 kts | 82° |
| 2026-04-26 17:33 | 46.41431 | 23.70537 | 32314 ft | 446 kts | 82° |
| 2026-04-26 17:34 | 46.41845 | 23.79439 | 31472 ft | 440 kts | 82° |
| 2026-04-26 17:34 | 46.42044 | 23.83849 | 31073 ft | 437 kts | 82° |
| 2026-04-26 17:34 | 46.42240 | 23.88231 | 30684 ft | 435 kts | 82° |
| 2026-04-26 17:34 | 46.42434 | 23.92598 | 30301 ft | 432 kts | 82° |
| 2026-04-26 17:35 | 46.42627 | 23.96887 | 29887 ft | 430 kts | 82° |
| 2026-04-26 17:35 | 46.42820 | 24.01185 | 29474 ft | 428 kts | 81° |
| 2026-04-26 17:35 | 46.43010 | 24.05485 | 29081 ft | 425 kts | 81° |
| 2026-04-26 17:35 | 46.43194 | 24.09753 | 28692 ft | 423 kts | 81° |
| 2026-04-26 17:36 | 46.43374 | 24.14000 | 28318 ft | 421 kts | 81° |
| 2026-04-26 17:36 | 46.43552 | 24.18219 | 27941 ft | 418 kts | 81° |
| 2026-04-26 17:36 | 46.43729 | 24.22416 | 27560 ft | 416 kts | 81° |
| 2026-04-26 17:36 | 46.43902 | 24.26592 | 27169 ft | 414 kts | 81° |
| 2026-04-26 17:37 | 46.44073 | 24.30749 | 26854 ft | 412 kts | 79° |
| 2026-04-26 17:37 | 46.44246 | 24.34886 | 26413 ft | 412 kts | 80° |
| 2026-04-26 17:37 | 46.44418 | 24.39022 | 26020 ft | 410 kts | 80° |
| 2026-04-26 17:38 | 46.44749 | 24.47179 | 25270 ft | 406 kts | 80° |
| 2026-04-26 17:38 | 46.44912 | 24.51252 | 24886 ft | 404 kts | 79° |
| 2026-04-26 17:38 | 46.45071 | 24.55310 | 24500 ft | 402 kts | 79° |
| 2026-04-26 17:38 | 46.45227 | 24.59342 | 24129 ft | 400 kts | 79° |
| 2026-04-26 17:39 | 46.45383 | 24.63361 | 23753 ft | 398 kts | 79° |
| 2026-04-26 17:39 | 46.45537 | 24.67350 | 23331 ft | 396 kts | 79° |
| 2026-04-26 17:39 | 46.45686 | 24.71325 | 22910 ft | 393 kts | 79° |
| 2026-04-26 17:39 | 46.45834 | 24.75267 | 22508 ft | 391 kts | 79° |
| 2026-04-26 17:40 | 46.45980 | 24.79193 | 22109 ft | 388 kts | 79° |
| 2026-04-26 17:40 | 46.46074 | 24.81776 | 21839 ft | 387 kts | 79° |
| 2026-04-26 17:40 | 46.46259 | 24.86921 | 21315 ft | 384 kts | 79° |
| 2026-04-26 17:40 | 46.46399 | 24.90780 | 20920 ft | 382 kts | 79° |
| 2026-04-26 17:41 | 46.46538 | 24.94615 | 20565 ft | 380 kts | 79° |
| 2026-04-26 17:41 | 46.46672 | 24.98430 | 20208 ft | 377 kts | 79° |
| 2026-04-26 17:41 | 46.46807 | 25.02218 | 19840 ft | 375 kts | 79° |
| 2026-04-26 17:41 | 46.46941 | 25.05989 | 19479 ft | 373 kts | 79° |
| 2026-04-26 17:42 | 46.47074 | 25.09728 | 19123 ft | 371 kts | 79° |
| 2026-04-26 17:42 | 46.47203 | 25.13463 | 18768 ft | 369 kts | 79° |
| 2026-04-26 17:42 | 46.47329 | 25.17171 | 18435 ft | 367 kts | 79° |
| 2026-04-26 17:42 | 46.47451 | 25.20864 | 18041 ft | 366 kts | 79° |
| 2026-04-26 17:43 | 46.47571 | 25.24534 | 17673 ft | 363 kts | 79° |
| 2026-04-26 17:43 | 46.47690 | 25.28137 | 17304 ft | 361 kts | 79° |
| 2026-04-26 17:43 | 46.47810 | 25.31771 | 16934 ft | 359 kts | 79° |
| 2026-04-26 17:43 | 46.47926 | 25.35374 | 16560 ft | 357 kts | 79° |
| 2026-04-26 17:44 | 46.48040 | 25.38961 | 16194 ft | 355 kts | 79° |
| 2026-04-26 17:44 | 46.48154 | 25.42523 | 15829 ft | 353 kts | 79° |
| 2026-04-26 17:44 | 46.48266 | 25.46066 | 15488 ft | 351 kts | 79° |
| 2026-04-26 17:44 | 46.48376 | 25.49593 | 15153 ft | 349 kts | 79° |
| 2026-04-26 17:45 | 46.48482 | 25.53096 | 14832 ft | 347 kts | 79° |
| 2026-04-26 17:45 | 46.48587 | 25.56575 | 14483 ft | 345 kts | 79° |
| 2026-04-26 17:45 | 46.48693 | 25.59995 | 14160 ft | 343 kts | 79° |
| 2026-04-26 17:45 | 46.48791 | 25.63438 | 13800 ft | 341 kts | 79° |
| 2026-04-26 17:46 | 46.48878 | 25.66868 | 13440 ft | 339 kts | 80° |
| 2026-04-26 17:46 | 46.48956 | 25.70276 | 13104 ft | 337 kts | 81° |
| 2026-04-26 17:46 | 46.49030 | 25.73661 | 12754 ft | 334 kts | 81° |
| 2026-04-26 17:46 | 46.49104 | 25.77017 | 12413 ft | 332 kts | 81° |
| 2026-04-26 17:47 | 46.49176 | 25.80343 | 12098 ft | 329 kts | 82° |
| 2026-04-26 17:47 | 46.49224 | 25.82541 | 11889 ft | 327 kts | 82° |
| 2026-04-26 17:47 | 46.49320 | 25.86934 | 11462 ft | 324 kts | 83° |
| 2026-04-26 17:47 | 46.49393 | 25.90190 | 11199 ft | 321 kts | 83° |
| 2026-04-26 17:48 | 46.49465 | 25.93418 | 11080 ft | 319 kts | 83° |
| 2026-04-26 17:48 | 46.49538 | 25.96609 | 11104 ft | 321 kts | 83° |
| 2026-04-26 17:48 | 46.49613 | 25.99857 | 11119 ft | 323 kts | 83° |
| 2026-04-26 17:48 | 46.49684 | 26.03113 | 11114 ft | 323 kts | 83° |
| 2026-04-26 17:49 | 46.49748 | 26.06375 | 11113 ft | 323 kts | 84° |
| 2026-04-26 17:49 | 46.49811 | 26.09635 | 11116 ft | 324 kts | 84° |
| 2026-04-26 17:49 | 46.49876 | 26.12911 | 11123 ft | 325 kts | 84° |
| 2026-04-26 17:49 | 46.49942 | 26.16182 | 11004 ft | 325 kts | 84° |
| 2026-04-26 17:50 | 46.50006 | 26.19446 | 10754 ft | 323 kts | 84° |
| 2026-04-26 17:50 | 46.50070 | 26.22649 | 10520 ft | 321 kts | 85° |
| 2026-04-26 17:50 | 46.50134 | 26.25876 | 10281 ft | 319 kts | 85° |
| 2026-04-26 17:50 | 46.50195 | 26.29079 | 10035 ft | 317 kts | 85° |
| 2026-04-26 17:51 | 46.50254 | 26.32275 | 9868 ft | 316 kts | 86° |
| 2026-04-26 17:51 | 46.50310 | 26.35462 | 9744 ft | 316 kts | 86° |
| 2026-04-26 17:51 | 46.50366 | 26.38653 | 9605 ft | 315 kts | 86° |
| 2026-04-26 17:51 | 46.50423 | 26.41822 | 9459 ft | 314 kts | 86° |
| 2026-04-26 17:52 | 46.50485 | 26.44985 | 9327 ft | 314 kts | 86° |
| 2026-04-26 17:52 | 46.50545 | 26.48147 | 9194 ft | 312 kts | 86° |
| 2026-04-26 17:52 | 46.50605 | 26.51297 | 9058 ft | 312 kts | 86° |
| 2026-04-26 17:52 | 46.50662 | 26.54396 | 8929 ft | 311 kts | 86° |
| 2026-04-26 17:53 | 46.50716 | 26.57527 | 8796 ft | 310 kts | 86° |
| 2026-04-26 17:53 | 46.50768 | 26.60647 | 8664 ft | 308 kts | 86° |
| 2026-04-26 17:53 | 46.50818 | 26.63750 | 8529 ft | 307 kts | 86° |
| 2026-04-26 17:54 | 46.50910 | 26.69931 | 8221 ft | 305 kts | 86° |
| 2026-04-26 17:54 | 46.50955 | 26.72995 | 7909 ft | 302 kts | 86° |
| 2026-04-26 17:54 | 46.51000 | 26.76025 | 7603 ft | 299 kts | 85° |
| 2026-04-26 17:54 | 46.51009 | 26.79033 | 7311 ft | 298 kts | 92° |
| 2026-04-26 17:55 | 46.50591 | 26.81974 | 7032 ft | 298 kts | 107° |
| 2026-04-26 17:55 | 46.49693 | 26.84629 | 6752 ft | 297 kts | 123° |
| 2026-04-26 17:55 | 46.48383 | 26.86936 | 6417 ft | 296 kts | 132° |
| 2026-04-26 17:55 | 46.47002 | 26.89139 | 6058 ft | 295 kts | 131° |
| 2026-04-26 17:56 | 46.45626 | 26.91344 | 5719 ft | 293 kts | 130° |
| 2026-04-26 17:56 | 46.42922 | 26.95695 | 5195 ft | 285 kts | 129° |
| 2026-04-26 17:57 | 46.40337 | 26.99834 | 4933 ft | 269 kts | 128° |
| 2026-04-26 17:57 | 46.39121 | 27.01782 | 4793 ft | 260 kts | 128° |
| 2026-04-26 17:57 | 46.37926 | 27.03697 | 4669 ft | 252 kts | 128° |
| 2026-04-26 17:57 | 46.36771 | 27.05548 | 4518 ft | 244 kts | 128° |
| 2026-04-26 17:58 | 46.32738 | 27.07520 | 4187 ft | 207 kts | 227° |
| 2026-04-26 17:59 | 46.31766 | 27.04367 | 4008 ft | 158 kts | 274° |
| 2026-04-26 17:59 | 46.31776 | 27.02821 | 3925 ft | 150 kts | 288° |
| 2026-04-26 17:59 | 46.32029 | 27.01411 | 3850 ft | 144 kts | 301° |
| 2026-04-26 17:59 | 46.32496 | 27.00156 | 3778 ft | 140 kts | 313° |
| 2026-04-26 18:00 | 46.33146 | 26.99110 | 3682 ft | 140 kts | 325° |
| 2026-04-26 18:00 | 46.33952 | 26.98307 | 3625 ft | 142 kts | 336° |
| 2026-04-26 18:00 | 46.34874 | 26.97795 | 3548 ft | 143 kts | 347° |
| 2026-04-26 18:00 | 46.35844 | 26.97419 | 3424 ft | 146 kts | 347° |
| 2026-04-26 18:01 | 46.36814 | 26.97040 | 3191 ft | 144 kts | 347° |
| 2026-04-26 18:01 | 46.37776 | 26.96664 | 3051 ft | 143 kts | 347° |
| 2026-04-26 18:01 | 46.38735 | 26.96289 | 3029 ft | 143 kts | 347° |
| 2026-04-26 18:01 | 46.39696 | 26.95914 | 2942 ft | 143 kts | 347° |
| 2026-04-26 18:02 | 46.40642 | 26.95544 | 2790 ft | 143 kts | 347° |
| 2026-04-26 18:02 | 46.41291 | 26.95290 | 2661 ft | 143 kts | 347° |
| 2026-04-26 18:02 | 46.42558 | 26.94795 | 2415 ft | 142 kts | 347° |
| 2026-04-26 18:02 | 46.43512 | 26.94421 | 2217 ft | 142 kts | 347° |
| 2026-04-26 18:03 | 46.44464 | 26.94048 | 2036 ft | 141 kts | 346° |
| 2026-04-26 18:03 | 46.45372 | 26.93702 | 1950 ft | 141 kts | 348° |
| 2026-04-26 18:03 | 46.46324 | 26.93337 | 1823 ft | 142 kts | 346° |
| 2026-04-26 18:03 | 46.47231 | 26.92967 | 1775 ft | 141 kts | 347° |
| 2026-04-26 18:04 | 46.48185 | 26.92586 | 1369 ft | 142 kts | 346° |
| 2026-04-26 18:04 | 46.49130 | 26.92220 | 1017 ft | 141 kts | 346° |
| 2026-04-26 18:04 | 46.50054 | 26.91842 | 845 ft | 142 kts | 345° |
| 2026-04-26 18:05 | 46.51923 | 26.91115 | 619 ft | 122 kts | 346° |
| 2026-04-26 18:05 | 46.52402 | 26.90933 | 623 ft | 23 kts | 345° |
| 2026-04-26 18:05 | 46.52551 | 26.90874 | 614 ft | 23 kts | 345° |
| 2026-04-26 18:05 | 46.52684 | 26.90824 | 620 ft | 10 kts | 345° |
| 2026-04-26 18:06 | 46.52739 | 26.90832 | 624 ft | 9 kts | 35° |
| 2026-04-26 18:06 | 46.52767 | 26.90925 | 614 ft | 11 kts | 75° |
| 2026-04-26 18:06 | 46.52803 | 26.91005 | 619 ft | 9 kts | 20° |
| 2026-04-26 18:06 | 46.52877 | 26.90988 | 627 ft | 13 kts | 345° |
| 2026-04-26 18:07 | 46.52973 | 26.90949 | 617 ft | 16 kts | 345° |
| 2026-04-26 18:07 | 46.53060 | 26.90916 | 627 ft | 10 kts | 346° |
| 2026-04-26 18:07 | 46.53124 | 26.90894 | 617 ft | 6 kts | 355° |
| 2026-04-26 18:07 | 46.53143 | 26.90923 | 615 ft | 7 kts | 69° |
| 2026-04-26 18:08 | 46.53154 | 26.90983 | 614 ft | 3 kts | 75° |
| 2026-04-26 18:08 | 46.53158 | 26.91002 | 628 ft | 0 kts | 75° |